createdAt,value
2019-05-21T00:00:40.178Z,24.55
2019-05-21T00:03:11.494Z,23.05
2019-05-21T00:05:42.129Z,24.57
2019-05-21T00:08:13.281Z,24.70
2019-05-21T00:10:43.931Z,25.00
2019-05-21T00:13:15.965Z,25.68
2019-05-21T00:15:46.304Z,26.05
2019-05-21T00:18:16.848Z,26.37
2019-05-21T00:20:47.186Z,25.75
2019-05-21T00:23:18.039Z,26.77
2019-05-21T00:25:48.398Z,25.43
2019-05-21T00:28:34.131Z,27.02
2019-05-21T00:31:40.870Z,27.27
2019-05-21T00:34:48.460Z,27.70
2019-05-21T00:37:55.542Z,27.77
2019-05-21T00:41:02.362Z,27.52
2019-05-21T00:43:45.439Z,28.90
2019-05-21T00:46:15.747Z,29.07
2019-05-21T00:48:47.091Z,28.35
2019-05-21T00:51:17.392Z,29.63
2019-05-21T00:53:47.757Z,30.57
2019-05-21T00:56:18.908Z,28.73
2019-05-21T00:58:49.434Z,28.98
2019-05-21T01:01:19.993Z,31.57
2019-05-21T01:03:52.606Z,33.63
2019-05-21T01:06:23.681Z,30.00
2019-05-21T01:08:54.807Z,32.90
2019-05-21T01:11:25.135Z,31.42
2019-05-21T01:13:56.997Z,30.37
2019-05-21T01:16:27.422Z,29.32
2019-05-21T01:18:57.783Z,30.50
2019-05-21T01:21:28.368Z,32.00
2019-05-21T01:23:58.711Z,33.65
2019-05-21T01:26:29.331Z,32.55
2019-05-21T01:29:00.518Z,33.28
2019-05-21T01:31:32.011Z,32.80
2019-05-21T01:34:02.357Z,35.13
2019-05-21T01:36:34.204Z,34.43
2019-05-21T01:39:05.917Z,33.38
2019-05-21T01:41:36.239Z,33.23
2019-05-21T01:44:07.725Z,33.63
2019-05-21T01:46:38.051Z,31.30
2019-05-21T01:49:08.338Z,33.20
2019-05-21T01:51:39.207Z,34.50
2019-05-21T01:54:10.653Z,32.48
2019-05-21T01:56:41.185Z,34.35
2019-05-21T01:59:11.712Z,34.30
2019-05-21T02:01:42.033Z,31.65
2019-05-21T02:04:13.595Z,32.03
2019-05-21T02:06:44.681Z,32.60
2019-05-21T02:09:15.434Z,34.65
2019-05-21T02:11:45.782Z,33.55
2019-05-21T02:14:17.329Z,33.63
2019-05-21T02:16:47.652Z,32.38
2019-05-21T02:19:18.324Z,33.85
2019-05-21T02:21:49.528Z,33.13
2019-05-21T02:24:19.949Z,31.07
2019-05-21T02:26:51.301Z,33.28
2019-05-21T02:29:21.625Z,33.10
2019-05-21T02:31:53.483Z,30.40
2019-05-21T02:34:23.881Z,34.53
2019-05-21T02:36:54.329Z,31.90
2019-05-21T02:39:24.868Z,30.35
2019-05-21T02:41:56.298Z,30.40
2019-05-21T02:44:26.974Z,31.33
2019-05-21T02:46:57.293Z,32.50
2019-05-21T02:49:27.659Z,32.03
2019-05-21T02:51:58.318Z,32.55
2019-05-21T02:54:40.245Z,32.67
2019-05-21T02:57:00.708Z,32.15
2019-05-21T02:59:31.430Z,33.08
2019-05-21T03:02:15.394Z,32.08
2019-05-21T03:04:47.218Z,32.90
2019-05-21T03:07:25.237Z,33.58
2019-05-21T03:09:53.788Z,35.83
2019-05-21T03:12:24.086Z,33.63
2019-05-21T03:14:56.336Z,33.83
2019-05-21T03:17:27.872Z,33.08
2019-05-21T03:19:58.688Z,35.43
2019-05-21T03:22:29.229Z,32.95
2019-05-21T03:25:02.330Z,36.40
2019-05-21T03:27:32.679Z,36.77
2019-05-21T03:30:03.061Z,34.75
2019-05-21T03:32:33.804Z,36.65
2019-05-21T03:35:09.905Z,34.18
2019-05-21T03:37:43.111Z,36.93
2019-05-21T03:40:14.174Z,38.60
2019-05-21T03:42:44.504Z,37.60
2019-05-21T03:45:16.895Z,35.83
2019-05-21T03:47:49.868Z,35.90
2019-05-21T03:50:20.180Z,35.88
2019-05-21T03:52:51.546Z,36.55
2019-05-21T03:55:23.587Z,36.28
2019-05-21T03:57:55.128Z,36.35
2019-05-21T04:00:26.315Z,34.00
2019-05-21T04:02:58.618Z,37.00
2019-05-21T04:05:29.503Z,35.52
2019-05-21T04:07:59.787Z,33.05
2019-05-21T04:10:47.685Z,33.50
2019-05-21T04:13:18.493Z,33.60
2019-05-21T04:16:00.585Z,34.73
2019-05-21T04:18:34.075Z,34.65
2019-05-21T04:21:04.502Z,35.75
2019-05-21T04:23:35.455Z,36.05
2019-05-21T04:26:08.036Z,31.80
2019-05-21T04:28:38.849Z,35.23
2019-05-21T04:31:09.174Z,34.75
2019-05-21T04:33:40.586Z,36.53
2019-05-21T04:36:11.467Z,33.15
2019-05-21T04:38:42.421Z,37.88
2019-05-21T04:41:12.760Z,37.55
2019-05-21T04:43:43.075Z,35.08
2019-05-21T04:46:14.721Z,33.40
2019-05-21T04:48:45.387Z,35.03
2019-05-21T04:51:15.744Z,32.98
2019-05-21T04:53:46.438Z,31.90
2019-05-21T04:56:16.786Z,30.08
2019-05-21T04:58:47.294Z,32.67
2019-05-21T05:01:18.574Z,33.02
2019-05-21T05:03:50.945Z,34.55
2019-05-21T05:06:22.096Z,34.15
2019-05-21T05:08:52.454Z,35.03
2019-05-21T05:11:22.728Z,33.50
2019-05-21T05:13:53.154Z,30.97
2019-05-21T05:16:24.093Z,34.70
2019-05-21T05:18:54.615Z,34.23
2019-05-21T05:21:24.944Z,34.63
2019-05-21T05:23:55.306Z,36.13
2019-05-21T05:26:25.702Z,34.33
2019-05-21T05:28:56.733Z,31.37
2019-05-21T05:31:27.162Z,30.85
2019-05-21T05:33:57.785Z,31.77
2019-05-21T05:36:28.086Z,30.43
2019-05-21T05:38:59.769Z,31.17
2019-05-21T05:41:30.080Z,31.60
2019-05-21T05:44:00.507Z,32.15
2019-05-21T05:46:32.362Z,31.05
2019-05-21T05:49:10.094Z,35.60
2019-05-21T05:51:41.239Z,30.15
2019-05-21T05:54:11.572Z,30.25
2019-05-21T05:56:42.765Z,33.53
2019-05-21T05:59:14.745Z,33.35
2019-05-21T06:01:45.295Z,32.50
2019-05-21T06:04:15.680Z,32.35
2019-05-21T06:06:46.824Z,31.45
2019-05-21T06:09:17.183Z,33.58
2019-05-21T06:11:49.007Z,32.23
2019-05-21T06:14:19.454Z,33.05
2019-05-21T06:16:50.468Z,32.50
2019-05-21T06:19:20.989Z,31.33
2019-05-21T06:21:53.215Z,31.97
2019-05-21T06:24:23.606Z,32.45
2019-05-21T06:26:54.229Z,30.00
2019-05-21T06:29:24.560Z,32.25
2019-05-21T06:31:55.262Z,30.55
2019-05-21T06:34:25.799Z,30.92
2019-05-21T06:36:57.261Z,32.93
2019-05-21T06:39:27.523Z,30.77
2019-05-21T06:41:59.229Z,31.12
2019-05-21T06:44:29.779Z,31.50
2019-05-21T06:47:01.947Z,30.48
2019-05-21T06:49:32.343Z,30.77
2019-05-21T06:52:03.477Z,31.27
2019-05-21T06:54:33.813Z,28.10
2019-05-21T06:57:06.541Z,30.00
2019-05-21T06:59:37.360Z,30.82
2019-05-21T07:02:08.201Z,26.77
2019-05-21T07:04:38.524Z,29.02
2019-05-21T07:07:10.101Z,27.42
2019-05-21T07:09:40.593Z,26.37
2019-05-21T07:12:11.984Z,27.50
2019-05-21T07:14:42.310Z,27.17
2019-05-21T07:17:12.934Z,25.75
2019-05-21T07:19:43.292Z,28.40
2019-05-21T07:22:13.778Z,28.05
2019-05-21T07:24:44.492Z,26.52
2019-05-21T07:27:15.541Z,24.80
2019-05-21T07:29:45.979Z,26.75
2019-05-21T07:32:16.940Z,26.40
2019-05-21T07:34:48.332Z,24.63
2019-05-21T07:37:18.863Z,27.10
2019-05-21T07:39:49.569Z,25.02
2019-05-21T07:42:20.590Z,24.43
2019-05-21T07:44:50.978Z,25.75
2019-05-21T07:47:21.673Z,23.45
2019-05-21T07:49:51.941Z,23.07
2019-05-21T07:52:26.083Z,24.55
2019-05-21T07:54:56.412Z,24.23
2019-05-21T07:57:26.778Z,26.37
2019-05-21T07:59:58.282Z,24.50
2019-05-21T08:02:29.593Z,23.62
2019-05-21T08:05:00.466Z,24.50
2019-05-21T08:07:31.708Z,21.50
2019-05-21T08:10:02.642Z,21.15
2019-05-21T08:12:38.816Z,18.65
2019-05-21T08:15:11.105Z,20.55
2019-05-21T08:17:42.602Z,19.10
2019-05-21T08:20:14.865Z,17.27
2019-05-21T08:22:46.478Z,17.45
2019-05-21T08:25:18.609Z,17.48
2019-05-21T08:27:48.990Z,19.80
2019-05-21T08:30:19.693Z,19.00
2019-05-21T08:32:50.551Z,18.45
2019-05-21T08:35:20.843Z,20.12
2019-05-21T08:37:51.139Z,20.00
2019-05-21T08:40:26.030Z,21.02
2019-05-21T08:42:57.425Z,21.48
2019-05-21T08:45:28.212Z,21.42
2019-05-21T08:48:00.620Z,20.65
2019-05-21T08:50:31.612Z,20.45
2019-05-21T08:53:01.983Z,20.02
2019-05-21T08:55:32.804Z,20.30
2019-05-21T08:58:07.385Z,20.17
2019-05-21T09:00:35.973Z,20.20
2019-05-21T09:03:07.837Z,20.27
2019-05-21T09:05:38.282Z,17.12
2019-05-21T09:08:09.183Z,16.05
2019-05-21T09:10:42.125Z,16.35
2019-05-21T09:13:13.453Z,17.00
2019-05-21T09:15:44.064Z,14.63
2019-05-21T09:18:16.577Z,12.88
2019-05-21T09:20:47.004Z,14.93
2019-05-21T09:23:17.323Z,14.47
2019-05-21T09:25:49.641Z,14.63
2019-05-21T09:28:20.422Z,15.85
2019-05-21T09:30:50.860Z,13.78
2019-05-21T09:33:21.214Z,16.45
2019-05-21T09:35:51.560Z,14.18
2019-05-21T09:38:22.233Z,14.73
2019-05-21T09:40:52.772Z,15.83
2019-05-21T09:43:23.546Z,13.45
2019-05-21T09:45:54.250Z,16.05
2019-05-21T09:48:24.825Z,12.82
2019-05-21T09:50:55.162Z,13.58
2019-05-21T09:53:25.800Z,13.62
2019-05-21T09:55:56.598Z,10.68
2019-05-21T09:58:28.595Z,12.30
2019-05-21T10:01:09.787Z,9.48
2019-05-21T10:03:48.800Z,9.38
2019-05-21T10:06:19.947Z,13.08
2019-05-21T10:08:51.698Z,11.43
2019-05-21T10:11:22.443Z,11.15
2019-05-21T10:13:52.969Z,7.83
2019-05-21T10:16:23.564Z,7.50
2019-05-21T10:18:55.449Z,7.20
2019-05-21T10:21:26.035Z,6.40
2019-05-21T10:23:59.602Z,7.58
2019-05-21T10:26:30.020Z,5.72
2019-05-21T10:29:03.290Z,6.75
2019-05-21T10:31:33.716Z,7.17
2019-05-21T10:34:05.790Z,9.10
2019-05-21T10:36:37.025Z,8.60
2019-05-21T10:39:08.669Z,7.62
2019-05-21T10:41:39.676Z,8.40
2019-05-21T10:44:10.354Z,7.42
2019-05-21T10:46:40.613Z,7.95
2019-05-21T10:49:11.490Z,7.30
2019-05-21T10:51:41.858Z,7.60
2019-05-21T10:54:12.636Z,6.42
2019-05-21T10:56:47.871Z,6.05
2019-05-21T10:59:15.034Z,5.37
2019-05-21T11:02:03.407Z,6.50
2019-05-21T11:04:57.683Z,7.03
2019-05-21T11:07:28.594Z,6.83
2019-05-21T11:10:03.817Z,6.97
2019-05-21T11:12:34.260Z,5.80
2019-05-21T11:15:08.295Z,6.40
2019-05-21T11:17:49.966Z,6.12
2019-05-21T11:20:14.803Z,5.58
2019-05-21T11:22:45.131Z,6.03
2019-05-21T11:25:19.000Z,5.78
2019-05-21T11:27:49.427Z,6.22
2019-05-21T11:30:22.644Z,6.12
2019-05-21T11:32:53.737Z,7.72
2019-05-21T11:35:24.618Z,6.20
2019-05-21T11:37:55.016Z,5.33
2019-05-21T11:40:26.402Z,5.78
2019-05-21T11:42:57.051Z,5.83
2019-05-21T11:45:32.095Z,4.60
2019-05-21T11:48:00.195Z,4.62
2019-05-21T11:50:31.240Z,5.40
2019-05-21T11:53:01.526Z,5.25
2019-05-21T11:55:33.961Z,6.30
2019-05-21T12:04:12.293Z,3.83
2019-05-21T12:07:03.718Z,5.77
2019-05-21T12:09:34.429Z,4.42
2019-05-21T12:12:06.989Z,5.40
2019-05-21T12:14:37.402Z,4.05
2019-05-21T12:17:07.959Z,4.03
2019-05-21T12:19:38.284Z,3.70
2019-05-21T12:22:09.064Z,3.40
2019-05-21T12:24:39.381Z,3.22
2019-05-21T12:27:11.559Z,2.58
2019-05-21T12:29:41.925Z,2.95
2019-05-21T12:32:14.510Z,3.40
2019-05-21T12:34:44.928Z,3.50
2019-05-21T12:37:15.417Z,3.50
2019-05-21T12:39:46.248Z,3.25
2019-05-21T12:42:17.452Z,3.15
2019-05-21T12:44:47.806Z,3.25
2019-05-21T12:47:20.384Z,3.37
2019-05-21T12:49:51.125Z,3.05
2019-05-21T12:52:22.208Z,3.00
2019-05-21T12:54:52.728Z,3.25
2019-05-21T12:57:23.083Z,2.60
2019-05-21T12:59:53.910Z,2.60
2019-05-21T13:02:26.049Z,2.72
2019-05-21T13:04:56.370Z,2.40
2019-05-21T13:07:27.167Z,2.72
2019-05-21T13:09:59.346Z,2.95
2019-05-21T13:12:30.184Z,2.50
2019-05-21T13:15:01.141Z,2.12
2019-05-21T13:17:31.953Z,2.27
2019-05-21T13:20:04.210Z,2.50
2019-05-21T13:22:36.698Z,2.55
2019-05-21T13:25:08.690Z,2.70
2019-05-21T13:27:39.489Z,2.25
2019-05-21T13:30:14.658Z,2.65
2019-05-21T13:32:45.183Z,2.62
2019-05-21T13:35:17.274Z,2.50
2019-05-21T13:37:47.678Z,2.60
2019-05-21T13:40:19.527Z,2.00
2019-05-21T13:42:50.903Z,2.05
2019-05-21T13:45:22.233Z,2.20
2019-05-21T13:47:52.628Z,1.87
2019-05-21T13:50:23.956Z,2.30
2019-05-21T13:52:55.231Z,2.47
2019-05-21T13:55:25.870Z,2.33
2019-05-21T13:57:56.265Z,2.10
2019-05-21T14:00:28.665Z,2.75
2019-05-21T14:02:59.084Z,2.52
2019-05-21T14:05:29.713Z,2.47
2019-05-21T14:08:00.611Z,3.90
2019-05-21T14:10:32.414Z,2.45
2019-05-21T14:13:03.256Z,2.27
2019-05-21T14:15:34.287Z,2.58
2019-05-21T14:18:05.141Z,2.98
2019-05-21T14:20:35.546Z,2.35
2019-05-21T14:23:07.407Z,2.60
2019-05-21T14:25:38.906Z,2.65
2019-05-21T14:28:09.227Z,2.20
2019-05-21T14:30:40.323Z,2.27
2019-05-21T14:33:10.653Z,2.80
2019-05-21T14:35:41.647Z,2.52
2019-05-21T14:38:12.010Z,2.90
2019-05-21T14:40:43.684Z,2.98
2019-05-21T14:43:14.505Z,2.42
2019-05-21T14:45:44.857Z,2.33
2019-05-21T14:48:15.239Z,2.00
2019-05-21T14:50:45.751Z,2.52
2019-05-21T14:53:16.506Z,2.30
2019-05-21T14:55:47.304Z,2.42
2019-05-21T14:58:17.619Z,2.45
2019-05-21T15:00:49.578Z,2.98
2019-05-21T15:03:25.369Z,2.50
2019-05-21T15:05:52.602Z,2.40
2019-05-21T15:08:22.988Z,2.47
2019-05-21T15:10:54.454Z,3.55
2019-05-21T15:13:25.604Z,2.83
2019-05-21T15:15:58.170Z,2.10
2019-05-21T15:18:28.691Z,2.15
2019-05-21T15:21:00.582Z,2.60
2019-05-21T15:23:33.078Z,2.20
2019-05-21T15:26:04.445Z,2.05
2019-05-21T15:28:35.248Z,2.00
2019-05-21T15:31:06.662Z,2.42
2019-05-21T15:33:37.385Z,2.37
2019-05-21T15:36:10.460Z,2.40
2019-05-21T15:38:50.206Z,2.83
2019-05-21T15:41:14.703Z,2.50
2019-05-21T15:43:45.176Z,2.27
2019-05-21T15:46:15.965Z,1.98
2019-05-21T15:48:46.843Z,2.35
2019-05-21T15:51:17.151Z,2.42
2019-05-21T15:53:48.306Z,2.00
2019-05-21T15:56:18.625Z,2.50
2019-05-21T15:58:48.975Z,2.20
2019-05-21T16:01:20.811Z,1.98
2019-05-21T16:03:52.436Z,2.42
2019-05-21T16:06:22.980Z,2.10
2019-05-21T16:08:54.869Z,2.30
2019-05-21T16:11:28.386Z,2.20
2019-05-21T16:13:58.180Z,1.60
2019-05-21T16:16:29.110Z,2.42
2019-05-21T16:18:59.588Z,2.17
2019-05-21T16:21:29.986Z,2.22
2019-05-21T16:24:00.376Z,2.05
2019-05-21T16:26:30.700Z,2.52
2019-05-21T16:29:01.129Z,2.20
2019-05-21T16:31:31.567Z,2.33
2019-05-21T16:34:02.993Z,2.30
2019-05-21T16:36:34.136Z,2.40
2019-05-21T16:39:06.914Z,2.25
2019-05-21T16:41:44.802Z,2.10
2019-05-21T16:44:09.782Z,2.25
2019-05-21T16:46:42.700Z,1.77
2019-05-21T16:49:12.690Z,2.30
2019-05-21T16:51:43.630Z,1.98
2019-05-21T16:54:15.812Z,2.02
2019-05-21T16:56:46.751Z,1.70
2019-05-21T16:59:17.018Z,2.20
2019-05-21T17:01:48.882Z,2.00
2019-05-21T17:04:19.232Z,2.05
2019-05-21T17:06:49.575Z,1.87
2019-05-21T17:09:22.152Z,2.00
2019-05-21T17:12:00.148Z,1.90
2019-05-21T17:14:25.152Z,2.25
2019-05-21T17:16:55.517Z,1.90
2019-05-21T17:19:25.899Z,2.35
2019-05-21T17:21:56.212Z,2.25
2019-05-21T17:24:27.172Z,2.20
2019-05-21T17:26:58.304Z,2.37
2019-05-21T17:29:28.862Z,2.20
2019-05-21T17:31:59.547Z,1.47
2019-05-21T17:34:29.862Z,1.98
2019-05-21T17:37:00.640Z,2.12
2019-05-21T17:39:31.633Z,2.20
2019-05-21T17:42:14.671Z,2.27
2019-05-21T17:44:34.861Z,1.70
2019-05-21T17:47:07.159Z,2.10
2019-05-21T17:49:39.398Z,1.82
2019-05-21T17:52:09.986Z,2.02
2019-05-21T17:54:56.289Z,1.87
2019-05-21T17:57:15.857Z,1.90
2019-05-21T17:59:47.653Z,1.80
2019-05-21T18:02:20.423Z,1.95
2019-05-21T18:04:51.850Z,1.67
2019-05-21T18:07:23.536Z,2.45
2019-05-21T18:09:54.172Z,2.27
2019-05-21T18:12:31.981Z,3.40
2019-05-21T18:14:58.699Z,2.00
2019-05-21T18:17:30.366Z,1.98
2019-05-21T18:20:02.458Z,2.45
2019-05-21T18:22:34.863Z,2.20
2019-05-21T18:25:08.818Z,1.85
2019-05-21T18:27:39.161Z,1.40
2019-05-21T18:30:11.635Z,2.10
2019-05-21T18:32:42.748Z,1.92
2019-05-21T18:35:14.267Z,1.90
2019-05-21T18:37:44.981Z,2.05
2019-05-21T18:40:15.560Z,1.47
2019-05-21T18:42:46.234Z,1.80
2019-05-21T18:45:18.180Z,2.58
2019-05-21T18:47:48.490Z,2.25
2019-05-21T18:50:33.379Z,2.22
2019-05-21T18:52:52.285Z,1.83
2019-05-21T18:55:24.205Z,1.77
2019-05-21T18:57:54.523Z,1.77
2019-05-21T19:00:26.010Z,2.47
2019-05-21T19:02:56.442Z,2.27
2019-05-21T19:05:29.223Z,2.45
2019-05-21T19:07:59.915Z,1.92
2019-05-21T19:10:30.829Z,1.72
2019-05-21T19:13:01.785Z,2.12
2019-05-21T19:15:34.974Z,2.00
2019-05-21T19:18:05.657Z,2.47
2019-05-21T19:20:36.595Z,2.52
2019-05-21T19:23:06.916Z,2.22
2019-05-21T19:25:39.723Z,2.67
2019-05-21T19:28:09.961Z,2.10
2019-05-21T19:30:41.157Z,2.60
2019-05-21T19:33:12.808Z,2.67
2019-05-21T19:35:43.538Z,2.58
2019-05-21T19:38:14.281Z,2.83
2019-05-21T19:40:47.913Z,3.12
2019-05-21T19:43:18.970Z,3.58
2019-05-21T19:45:49.640Z,3.25
2019-05-21T19:48:20.014Z,3.37
2019-05-21T19:50:50.626Z,4.22
2019-05-21T19:53:21.142Z,3.80
2019-05-21T19:55:55.131Z,4.53
2019-05-21T19:58:26.648Z,4.10
2019-05-21T20:00:58.481Z,4.33
2019-05-21T20:03:29.396Z,4.00
2019-05-21T20:06:01.571Z,5.05
2019-05-21T20:08:32.325Z,4.87
2019-05-21T20:11:03.755Z,4.33
2019-05-21T20:13:34.296Z,4.50
2019-05-21T20:16:06.928Z,4.62
2019-05-21T20:18:37.275Z,4.90
2019-05-21T20:21:09.631Z,4.75
2019-05-21T20:23:40.045Z,4.78
2019-05-21T20:26:18.583Z,5.22
2019-05-21T20:28:48.898Z,4.70
2019-05-21T20:31:20.249Z,4.87
2019-05-21T20:33:53.040Z,5.42
2019-05-21T20:36:24.414Z,5.40
2019-05-21T20:38:55.476Z,5.50
2019-05-21T20:41:26.037Z,5.45
2019-05-21T20:43:58.914Z,5.50
2019-05-21T20:46:29.028Z,5.15
2019-05-21T20:49:00.984Z,5.65
2019-05-21T20:51:33.342Z,6.20
2019-05-21T20:54:04.606Z,6.10
2019-05-21T20:56:36.829Z,5.80
2019-05-21T20:59:07.604Z,6.17
2019-05-21T21:01:38.351Z,7.10
2019-05-21T21:04:09.376Z,7.28
2019-05-21T21:06:44.236Z,6.20
2019-05-21T21:09:15.630Z,5.67
2019-05-21T21:11:46.670Z,6.08
2019-05-21T21:14:19.633Z,5.97
2019-05-21T21:16:51.912Z,5.83
2019-05-21T21:19:22.778Z,6.05
2019-05-21T21:21:55.876Z,5.50
2019-05-21T21:24:26.700Z,5.97
2019-05-21T21:26:58.717Z,6.62
2019-05-21T21:29:29.091Z,6.70
2019-05-21T21:32:00.615Z,6.83
2019-05-21T21:34:31.133Z,6.65
2019-05-21T21:37:02.812Z,6.53
2019-05-21T21:39:33.561Z,6.40
2019-05-21T21:42:06.638Z,6.80
2019-05-21T21:47:11.176Z,6.72
2019-05-21T21:49:41.532Z,6.37
2019-05-21T21:52:13.650Z,7.00
2019-05-21T21:54:44.621Z,5.83
2019-05-21T21:57:15.953Z,7.50
2019-05-21T21:59:46.684Z,6.42
2019-05-21T22:02:27.766Z,5.40
2019-05-21T22:05:00.226Z,6.28
2019-05-21T22:07:33.182Z,5.87
2019-05-21T22:10:08.517Z,5.72
2019-05-21T22:12:39.267Z,6.53
2019-05-21T22:15:11.862Z,7.20
2019-05-21T22:17:43.165Z,6.75
2019-05-21T22:20:15.168Z,5.90
2019-05-21T22:22:46.449Z,5.95
2019-05-21T22:25:16.775Z,5.75
2019-05-21T22:27:47.786Z,5.67
2019-05-21T22:30:19.910Z,6.00
2019-05-21T22:32:51.525Z,5.72
2019-05-21T22:35:21.797Z,6.08
2019-05-21T22:37:52.969Z,5.90
2019-05-21T22:40:23.421Z,5.90
2019-05-21T22:42:53.915Z,6.08
2019-05-21T22:45:24.851Z,6.37
2019-05-21T22:47:57.502Z,6.45
2019-05-21T22:50:28.061Z,6.58
2019-05-21T22:52:58.403Z,6.53
2019-05-21T22:55:29.172Z,6.70
2019-05-21T22:58:00.308Z,6.20
2019-05-21T23:00:32.958Z,6.17
2019-05-21T23:03:04.179Z,5.20
2019-05-21T23:05:34.535Z,5.85
2019-05-21T23:08:05.534Z,5.83
2019-05-21T23:10:36.642Z,6.30
2019-05-21T23:13:07.307Z,5.90
2019-05-21T23:15:39.240Z,5.83
2019-05-21T23:18:13.077Z,6.10
2019-05-21T23:21:04.304Z,5.45
2019-05-21T23:23:36.072Z,6.72
2019-05-21T23:26:08.908Z,6.87
2019-05-21T23:28:41.734Z,7.03
2019-05-21T23:31:15.544Z,6.97
2019-05-21T23:33:45.863Z,5.97
2019-05-21T23:36:18.001Z,7.45
2019-05-21T23:38:49.922Z,6.65
2019-05-21T23:41:22.025Z,7.10
2019-05-21T23:43:53.063Z,6.70
2019-05-21T23:46:23.923Z,6.97
2019-05-21T23:48:54.294Z,6.97
2019-05-21T23:51:25.639Z,7.47
2019-05-21T23:53:56.807Z,7.05
2019-05-21T23:56:27.149Z,7.42
2019-05-21T23:58:57.884Z,7.62
